Tinian Mariana Islands, Northern Mariana Islands
Current Conditions -  °F | °C
As of 6:54 PM on Monday 24 Nov 2014 (Local Time) from PGSN Reporting Station
Clear Clear  
Wind Chill: 80°   Ceiling: Unl
Heat Index: 85°   Visibility: 10mi
Dew Point: 75°   Wind: 8mph
Humidity: 85%   Direction: 80°E
Pressure: 29.86"   Gusts: NA
Location:  15.084°N, 145.652°E
Report Text: PGSN 240854Z 08007KT 10SM CLR 27/24 A2986 RMK AO2 SLP133 6//// T02670239 51008 PNO $
Loading
Personal Weather Stations






























Interactive Weather Map New forecast layout! Learn more

10-Day Weather Forecast

Advertisements
Track Severe Weather on mobile